Latest Weather Observations for Flinders Reef

IDQ60801

Issued at 3:22 pm EST Monday 23 September 2019 (issued every 10 minutes, with the page automatically refreshed every 10 minutes)

About weather observations | Map of weather stations | Latest weather observations for QLD | Other Formats
Station Details ID: 200783 Name: FLINDERS REEF Lat: -17.72 Lon: 148.45 Height: 2.6 m
Data from the previous 72 hours. | See also: Recent months at Flinders Reef
Date/Time
EST
Temp
°C
App
Temp
°C
Dew
Point
°C
Rel
Hum
%
Delta-T
°C
Wind Press
QNH
hPa
Press
MSL
hPa
Rain since
9am
mm
Dir  Spd
km/h
Gust
km/h
Spd
kts
Gust
kts
23/03:00pm 23.7 - - - - SE 35 39 19 21 1018.5 1018.5 -
23/02:30pm 23.7 - - - - SE 33 39 18 21 1018.7 1018.7 -
23/02:00pm 23.9 - - - - SE 33 39 18 21 1018.8 1018.8 -
23/01:30pm 24.0 - - - - SE 35 39 19 21 1019.1 1019.1 -
23/01:00pm 23.7 - - - - SE 35 39 19 21 1019.4 1019.4 -
23/12:30pm 24.0 - - - - SE 35 39 19 21 1019.7 1019.7 -
23/12:00pm 24.2 - - - - SE 33 39 18 21 1020.1 1020.1 -
23/11:30am 24.3 - - - - SE 32 35 17 19 1020.5 1020.5 -
23/11:00am 24.3 - - - - SE 35 41 19 22 1020.9 1020.9 -
23/10:30am 24.1 - - - - SE 37 41 20 22 1021.2 1021.2 -
23/10:00am 24.3 - - - - SE 37 44 20 24 1021.4 1021.4 -
23/09:30am 24.2 - - - - ESE 37 43 20 23 1021.3 1021.3 -
23/09:00am 24.1 - - - - ESE 35 43 19 23 1021.4 1021.4 -
23/08:30am 24.1 - - - - SE 35 43 19 23 1021.3 1021.3 -
23/08:00am 24.0 - - - - SE 37 43 20 23 1021.3 1021.3 -
23/07:30am 24.1 - - - - ESE 35 43 19 23 1021.1 1021.1 -
23/07:00am 23.9 - - - - ESE 39 43 21 23 1021.0 1021.0 -
23/06:30am 23.9 - - - - ESE 39 44 21 24 1020.9 1020.9 -
23/06:00am 23.8 - - - - ESE 35 41 19 22 1020.7 1020.7 -
23/05:30am 23.9 - - - - E 37 43 20 23 1020.4 1020.4 -
23/05:00am 23.8 - - - - E 37 43 20 23 1020.1 1020.1 -
23/04:30am 23.9 - - - - ESE 33 39 18 21 1020.0 1020.0 -
23/04:00am 24.0 - - - - E 35 43 19 23 1019.8 1019.8 -
23/03:30am 23.8 - - - - ESE 35 41 19 22 1019.8 1019.8 -
23/03:00am 23.6 - - - - ESE 35 43 19 23 1019.8 1019.8 -
23/02:30am 23.5 - - - - ESE 33 37 18 20 1019.9 1019.9 -
23/02:00am 23.6 - - - - ESE 37 43 20 23 1020.3 1020.3 -
23/01:30am 23.7 - - - - ESE 35 41 19 22 1020.6 1020.6 -
23/01:00am 23.6 - - - - ESE 35 41 19 22 1021.0 1021.0 -
23/12:30am 23.9 - - - - ESE 35 41 19 22 1021.2 1021.2 -
23/12:00am 23.8 - - - - ESE 33 39 18 21 1021.5 1021.5 -
 
Date/Time
EST
Temp
°C
App
Temp
°C
Dew
Point
°C
Rel
Hum
%
Delta-T
°C
Wind Press
QNH
hPa
Press
MSL
hPa
Rain since
9am
mm
Dir  Spd
km/h
Gust
km/h
Spd
kts
Gust
kts
22/11:30pm 23.9 - - - - ESE 35 41 19 22 1021.4 1021.4 -
22/11:00pm 23.9 - - - - ESE 33 39 18 21 1021.7 1021.7 -
22/10:30pm 23.5 - - - - ESE 33 39 18 21 1021.8 1021.8 -
22/10:00pm 23.8 - - - - ESE 35 39 19 21 1021.8 1021.8 -
22/09:30pm 24.0 - - - - ESE 33 37 18 20 1021.8 1021.8 -
22/09:00pm 23.9 - - - - ESE 35 43 19 23 1021.6 1021.6 -
22/08:30pm 23.9 - - - - ESE 37 41 20 22 1021.4 1021.4 -
22/08:00pm 24.0 - - - - ESE 35 39 19 21 1021.1 1021.1 -
22/07:30pm 24.1 - - - - ESE 33 39 18 21 1020.5 1020.5 -
22/07:00pm 24.0 - - - - ESE 37 43 20 23 1020.3 1020.3 -
22/06:30pm 24.0 - - - - ESE 37 43 20 23 1020.0 1020.0 -
22/06:00pm 24.1 - - - - SE 37 41 20 22 1019.8 1019.8 -
22/05:30pm 24.1 - - - - SE 37 43 20 23 1019.5 1019.5 -
22/05:00pm 24.3 - - - - SE 37 43 20 23 1019.2 1019.2 -
22/04:30pm 24.4 - - - - SE 35 41 19 22 1019.1 1019.1 -
22/04:00pm 24.4 - - - - SE 32 37 17 20 1019.0 1019.0 -
22/03:30pm 24.5 - - - - SE 32 35 17 19 1018.9 1018.9 -
22/03:00pm 24.6 - - - - SE 35 39 19 21 1018.9 1018.9 -
22/02:30pm 24.3 - - - - SE 37 43 20 23 1018.9 1018.9 -
22/02:00pm 24.4 - - - - SE 39 46 21 25 1019.1 1019.1 -
22/01:30pm 24.3 - - - - SE 35 41 19 22 1019.3 1019.3 -
22/01:00pm 24.4 - - - - SE 35 43 19 23 1019.5 1019.5 -
22/12:30pm 24.1 - - - - SE 37 43 20 23 1019.8 1019.8 -
22/12:00pm 24.1 - - - - SE 39 44 21 24 1020.0 1020.0 -
22/11:30am 24.2 - - - - SE 39 44 21 24 1020.2 1020.2 -
22/11:00am 24.1 - - - - SE 39 43 21 23 1020.4 1020.4 -
22/10:30am 24.2 - - - - SE 37 44 20 24 1020.5 1020.5 -
22/10:00am 24.4 - - - - SE 37 43 20 23 1020.6 1020.6 -
22/09:30am 24.2 - - - - SE 39 43 21 23 1020.6 1020.6 -
22/09:00am 24.1 - - - - SE 35 41 19 22 1020.6 1020.6 -
22/08:30am 24.3 - - - - SE 35 41 19 22 1020.6 1020.6 -
22/08:00am 23.7 - - - - SE 39 43 21 23 1020.4 1020.4 -
22/07:30am 23.7 - - - - SE 35 41 19 22 1020.1 1020.1 -
22/07:00am 23.8 - - - - SE 35 41 19 22 1019.9 1019.9 -
22/06:30am 23.8 - - - - SE 35 41 19 22 1019.7 1019.7 -
22/06:00am 23.5 - - - - SE 33 41 18 22 1019.3 1019.3 -
22/05:30am 23.6 - - - - SE 33 39 18 21 1019.1 1019.1 -
22/05:00am 23.4 - - - - SE 33 39 18 21 1019.0 1019.0 -
22/04:30am 23.4 - - - - SE 33 39 18 21 1018.7 1018.7 -
22/04:00am 23.5 - - - - SE 33 39 18 21 1018.6 1018.6 -
22/03:30am 23.7 - - - - SE 35 41 19 22 1018.4 1018.4 -
22/03:00am 23.7 - - - - ESE 37 41 20 22 1018.2 1018.2 -
22/02:30am 23.5 - - - - SE 33 41 18 22 1018.2 1018.2 -
22/02:00am 23.7 - - - - ESE 37 43 20 23 1018.4 1018.4 -
22/01:30am 23.5 - - - - SE 39 44 21 24 1018.6 1018.6 -
22/01:00am 23.6 - - - - SE 37 44 20 24 1018.8 1018.8 -
22/12:30am 23.7 - - - - SE 35 41 19 22 1019.0 1019.0 -
22/12:00am 23.7 - - - - ESE 35 41 19 22 1019.1 1019.1 -
 
Date/Time
EST
Temp
°C
App
Temp
°C
Dew
Point
°C
Rel
Hum
%
Delta-T
°C
Wind Press
QNH
hPa
Press
MSL
hPa
Rain since
9am
mm
Dir  Spd
km/h
Gust
km/h
Spd
kts
Gust
kts
21/11:30pm 23.7 - - - - ESE 41 46 22 25 1019.2 1019.2 -
21/11:00pm 23.8 - - - - ESE 39 44 21 24 1019.3 1019.3 -
21/10:30pm 23.9 - - - - ESE 35 43 19 23 1019.6 1019.6 -
21/10:00pm 23.9 - - - - ESE 37 43 20 23 1019.7 1019.7 -
21/09:30pm 24.0 - - - - SE 37 43 20 23 1019.6 1019.6 -
21/09:00pm 24.0 - - - - ESE 35 43 19 23 1019.7 1019.7 -
21/08:30pm 23.8 - - - - SE 37 46 20 25 1019.4 1019.4 -
21/08:00pm 23.8 - - - - SE 37 43 20 23 1019.2 1019.2 -
21/07:30pm 23.8 - - - - SE 37 43 20 23 1018.8 1018.8 -
21/07:00pm 23.9 - - - - SE 37 43 20 23 1018.5 1018.5 -
21/06:30pm 24.2 - - - - ESE 35 41 19 22 1018.3 1018.3 -
21/06:00pm 24.0 - - - - SE 35 41 19 22 1018.2 1018.2 -
21/05:30pm 24.0 - - - - SE 35 41 19 22 1017.7 1017.7 -
21/05:00pm 23.9 - - - - SE 33 41 18 22 1017.4 1017.4 -
21/04:30pm 23.9 - - - - SE 33 43 18 23 1017.2 1017.2 -
21/04:00pm 24.2 - - - - SE 32 37 17 20 1017.0 1017.0 -
21/03:30pm 24.1 - - - - ESE 32 37 17 20 1017.1 1017.1 -
21/03:00pm 24.2 - - - - SE 33 39 18 21 1017.2 1017.2 -
21/02:30pm 24.2 - - - - ESE 33 39 18 21 1017.4 1017.4 -
21/02:00pm 24.0 - - - - ESE 35 41 19 22 1017.8 1017.8 -
21/01:30pm 24.0 - - - - ESE 35 41 19 22 1018.1 1018.1 -
21/01:00pm 24.2 - - - - ESE 33 39 18 21 1018.4 1018.4 -
21/12:30pm 24.1 - - - - ESE 35 39 19 21 1018.7 1018.7 -
21/12:00pm 24.2 - - - - ESE 35 41 19 22 1019.1 1019.1 -
21/11:30am 24.5 - - - - ESE 37 41 20 22 1019.6 1019.6 -
21/11:00am 24.4 - - - - ESE 35 41 19 22 1019.9 1019.9 -
21/10:30am 24.0 - - - - ESE 37 41 20 22 1020.0 1020.0 -
21/10:00am 24.0 - - - - ESE 35 41 19 22 1020.2 1020.2 -
21/09:30am 24.0 - - - - ESE 37 43 20 23 1020.3 1020.3 -
21/09:00am 24.1 - - - - ESE 37 44 20 24 1020.2 1020.2 -
21/08:30am 23.7 - - - - ESE 39 46 21 25 1019.9 1019.9 -
21/08:00am 23.1 - - - - SE 26 35 14 19 1019.9 1019.9 -
21/07:30am 23.5 - - - - SE 32 41 17 22 1019.4 1019.4 -
21/07:00am 23.4 - - - - SE 33 39 18 21 1019.1 1019.1 -
21/06:30am 23.3 - - - - SE 33 43 18 23 1018.8 1018.8 -
21/06:00am 23.8 - - - - SE 30 33 16 18 1018.6 1018.6 -
21/05:30am 23.7 - - - - SE 30 35 16 19 1018.3 1018.3 -
21/05:00am 23.6 - - - - SE 32 37 17 20 1018.2 1018.2 -
21/04:30am 23.9 - - - - ESE 35 43 19 23 1018.0 1018.0 -
21/04:00am 23.6 - - - - SE 33 39 18 21 1017.8 1017.8 -
21/03:30am 23.6 - - - - ESE 33 39 18 21 1017.7 1017.7 -
21/03:00am 23.5 - - - - ESE 30 35 16 19 1017.8 1017.8 -
21/02:30am 23.5 - - - - ESE 32 37 17 20 1017.9 1017.9 -
21/02:00am 23.5 - - - - ESE 33 39 18 21 1018.1 1018.1 -
21/01:30am 23.5 - - - - E 32 37 17 20 1018.3 1018.3 -
21/01:00am 23.6 - - - - ESE 35 43 19 23 1018.6 1018.6 -
21/12:30am 23.7 - - - - ESE 37 44 20 24 1018.9 1018.9 -
21/12:00am 23.7 - - - - ESE 37 43 20 23 1019.1 1019.1 -
 
Date/Time
EST
Temp
°C
App
Temp
°C
Dew
Point
°C
Rel
Hum
%
Delta-T
°C
Wind Press
QNH
hPa
Press
MSL
hPa
Rain since
9am
mm
Dir  Spd
km/h
Gust
km/h
Spd
kts
Gust
kts
20/11:30pm 23.7 - - - - ESE 35 39 19 21 1019.5 1019.5 -
20/11:00pm 23.7 - - - - ESE 35 41 19 22 1019.5 1019.5 -
20/10:30pm 23.9 - - - - ESE 35 43 19 23 1019.5 1019.5 -
20/10:00pm 24.0 - - - - ESE 35 41 19 22 1019.5 1019.5 -
20/09:30pm 24.1 - - - - ESE 35 43 19 23 1019.4 1019.4 -
20/09:00pm 24.2 - - - - SE 37 44 20 24 1018.9 1018.9 -
20/08:30pm 24.1 - - - - SE 39 46 21 25 1018.7 1018.7 -
20/08:00pm 24.2 - - - - SE 37 44 20 24 1018.4 1018.4 -
20/07:30pm 23.8 - - - - SE 39 44 21 24 1018.1 1018.1 -
20/07:00pm 23.8 - - - - ESE 39 44 21 24 1017.6 1017.6 -
20/06:30pm 23.9 - - - - ESE 41 46 22 25 1017.4 1017.4 -
20/06:00pm 23.9 - - - - ESE 41 48 22 26 1017.0 1017.0 -
20/05:30pm 24.1 - - - - ESE 41 46 22 25 1016.9 1016.9 -
20/05:00pm 24.1 - - - - ESE 39 44 21 24 1016.6 1016.6 -
20/04:30pm 24.0 - - - - ESE 37 43 20 23 1016.4 1016.3 -
20/04:00pm 23.9 - - - - ESE 39 44 21 24 1016.4 1016.3 -
20/03:30pm 24.0 - - - - SE 39 44 21 24 1016.4 1016.3 -

Other formats

Comma delimited format used in spreadsheet applications
http://www.bom.gov.au/fwo/IDQ60801/IDQ60801.94290.axf

JavaScript Object Notation format (JSON) in row-major order
http://www.bom.gov.au/fwo/IDQ60801/IDQ60801.94290.json

Data quality

Most of these data are generated automatically and are frequently updated. Quality checks on data are not normally performed. It is possible for incorrect values to appear. Refer to information at About Latest Weather Observations and please check the disclaimer before using these data.